createdAt,value
2023-06-29T00:00:16.223Z,28.35
2023-06-29T00:01:16.300Z,28.30
2023-06-29T00:02:16.151Z,28.35
2023-06-29T00:03:19.480Z,28.33
2023-06-29T00:04:16.074Z,28.33
2023-06-29T00:05:16.106Z,28.30
2023-06-29T00:06:16.052Z,28.33
2023-06-29T00:07:16.146Z,28.32
2023-06-29T00:08:16.070Z,28.30
2023-06-29T00:09:16.058Z,28.32
2023-06-29T00:10:15.998Z,28.32
2023-06-29T00:11:15.923Z,28.30
2023-06-29T00:12:15.919Z,28.32
2023-06-29T00:13:15.958Z,28.33
2023-06-29T00:14:15.987Z,28.32
2023-06-29T00:15:15.860Z,28.32
2023-06-29T00:16:15.831Z,28.30
2023-06-29T00:17:15.801Z,28.32
2023-06-29T00:18:15.838Z,28.30
2023-06-29T00:19:16.138Z,28.32
2023-06-29T00:20:15.814Z,28.32
2023-06-29T00:21:15.754Z,28.30
2023-06-29T00:22:15.716Z,28.27
2023-06-29T00:23:15.733Z,28.30
2023-06-29T00:24:15.696Z,28.27
2023-06-29T00:25:15.722Z,28.26
2023-06-29T00:26:15.668Z,28.26
2023-06-29T00:27:15.657Z,28.26
2023-06-29T00:28:15.733Z,28.23
2023-06-29T00:29:15.616Z,28.20
2023-06-29T00:30:15.598Z,28.23
2023-06-29T00:31:15.613Z,28.23
2023-06-29T00:32:15.573Z,28.22
2023-06-29T00:33:15.540Z,28.22
2023-06-29T00:34:15.539Z,28.22
2023-06-29T00:35:15.540Z,28.20
2023-06-29T00:36:15.522Z,28.22
2023-06-29T00:37:15.524Z,28.19
2023-06-29T00:38:15.517Z,28.20
2023-06-29T00:39:15.483Z,28.16
2023-06-29T00:40:15.650Z,28.19
2023-06-29T00:41:15.463Z,28.20
2023-06-29T00:42:15.525Z,28.16
2023-06-29T00:43:15.426Z,28.15
2023-06-29T00:44:15.415Z,28.18
2023-06-29T00:45:15.392Z,28.15
2023-06-29T00:46:15.390Z,28.15
2023-06-29T00:47:15.381Z,28.15
2023-06-29T00:48:15.464Z,28.12
2023-06-29T00:49:15.357Z,28.11
2023-06-29T00:50:15.361Z,28.09
2023-06-29T00:51:15.396Z,28.09
2023-06-29T00:52:15.452Z,28.06
2023-06-29T00:53:15.451Z,28.05
2023-06-29T00:54:15.429Z,28.01
2023-06-29T00:55:15.455Z,28.02
2023-06-29T00:56:15.474Z,28.01
2023-06-29T00:57:15.379Z,27.99
2023-06-29T00:58:16.323Z,27.98
2023-06-29T00:59:15.366Z,27.91
2023-06-29T01:00:15.339Z,27.92
2023-06-29T01:01:15.395Z,27.91
2023-06-29T01:02:15.321Z,27.89
2023-06-29T01:03:15.763Z,27.89
2023-06-29T01:04:15.314Z,27.87
2023-06-29T01:05:15.296Z,27.85
2023-06-29T01:06:15.308Z,27.85
2023-06-29T01:07:15.312Z,27.85
2023-06-29T01:08:15.290Z,27.84
2023-06-29T01:09:16.170Z,27.82
2023-06-29T01:10:15.266Z,27.84
2023-06-29T01:11:15.248Z,27.87
2023-06-29T01:12:15.291Z,27.84
2023-06-29T01:13:15.227Z,27.87
2023-06-29T01:14:15.296Z,27.85
2023-06-29T01:15:15.200Z,27.85
2023-06-29T01:16:15.238Z,27.81
2023-06-29T01:17:15.192Z,27.81
2023-06-29T01:18:15.256Z,27.82
2023-06-29T01:19:15.181Z,27.82
2023-06-29T01:20:15.210Z,27.78
2023-06-29T01:21:15.142Z,27.78
2023-06-29T01:22:15.141Z,27.75
2023-06-29T01:23:15.261Z,27.74
2023-06-29T01:24:15.114Z,27.72
2023-06-29T01:25:15.115Z,27.72
2023-06-29T01:26:15.106Z,27.74
2023-06-29T01:27:15.118Z,27.77
2023-06-29T01:28:15.150Z,27.74
2023-06-29T01:29:15.051Z,27.74
2023-06-29T01:30:15.122Z,27.72
2023-06-29T01:31:15.072Z,27.67
2023-06-29T01:32:15.028Z,27.67
2023-06-29T01:33:15.103Z,27.64
2023-06-29T01:34:14.987Z,27.61
2023-06-29T01:35:15.015Z,27.57
2023-06-29T01:36:14.975Z,27.54
2023-06-29T01:37:14.981Z,27.50
2023-06-29T01:38:14.988Z,27.48
2023-06-29T01:39:14.928Z,27.40
2023-06-29T01:40:14.920Z,27.41
2023-06-29T01:41:14.912Z,27.37
2023-06-29T01:42:14.897Z,27.34
2023-06-29T01:43:15.210Z,27.32
2023-06-29T01:44:14.862Z,27.26
2023-06-29T01:45:14.921Z,27.26
2023-06-29T01:46:14.873Z,27.25
2023-06-29T01:47:14.820Z,27.20
2023-06-29T01:48:14.913Z,27.19
2023-06-29T01:49:14.822Z,27.14
2023-06-29T01:50:14.793Z,27.11
2023-06-29T01:51:14.816Z,27.07
2023-06-29T01:52:14.783Z,27.03
2023-06-29T01:53:15.367Z,27.05
2023-06-29T01:54:14.752Z,27.00
2023-06-29T01:55:14.771Z,26.98
2023-06-29T01:56:14.731Z,26.93
2023-06-29T01:57:14.773Z,26.90
2023-06-29T01:58:15.278Z,26.89
2023-06-29T01:59:14.691Z,26.90
2023-06-29T02:00:14.684Z,26.88
2023-06-29T02:01:14.724Z,26.83
2023-06-29T02:02:14.671Z,26.83
2023-06-29T02:03:14.742Z,26.83
2023-06-29T02:04:14.650Z,26.78
2023-06-29T02:05:14.667Z,26.74
2023-06-29T02:06:14.672Z,26.74
2023-06-29T02:07:15.267Z,26.72
2023-06-29T02:08:14.647Z,26.70
2023-06-29T02:09:14.614Z,26.67
2023-06-29T02:10:14.618Z,26.67
2023-06-29T02:11:14.621Z,26.65
2023-06-29T02:12:14.651Z,26.65
2023-06-29T02:13:14.689Z,26.65
2023-06-29T02:14:14.678Z,26.64
2023-06-29T02:15:14.679Z,26.62
2023-06-29T02:16:14.671Z,26.62
2023-06-29T02:17:14.665Z,26.61
2023-06-29T02:18:14.622Z,26.61
2023-06-29T02:19:14.632Z,26.58
2023-06-29T02:20:14.619Z,26.55
2023-06-29T02:21:14.614Z,26.56
2023-06-29T02:22:14.706Z,26.56
2023-06-29T02:23:14.616Z,26.56
2023-06-29T02:24:14.657Z,26.56
2023-06-29T02:25:14.745Z,26.56
2023-06-29T02:26:14.717Z,26.54
2023-06-29T02:27:14.687Z,26.55
2023-06-29T02:28:14.702Z,26.51
2023-06-29T02:29:14.661Z,26.51
2023-06-29T02:30:14.822Z,26.50
2023-06-29T02:31:14.747Z,26.51
2023-06-29T02:32:14.626Z,26.48
2023-06-29T02:33:14.881Z,26.47
2023-06-29T02:34:14.594Z,26.47
2023-06-29T02:35:14.575Z,26.44
2023-06-29T02:36:14.579Z,26.44
2023-06-29T02:37:14.560Z,26.41
2023-06-29T02:38:14.582Z,26.43
2023-06-29T02:39:14.649Z,26.44
2023-06-29T02:40:14.677Z,26.41
2023-06-29T02:41:14.655Z,26.37
2023-06-29T02:42:14.649Z,26.35
2023-06-29T02:43:16.242Z,26.41
2023-06-29T02:44:14.642Z,26.38
2023-06-29T02:45:14.626Z,26.35
2023-06-29T02:46:14.658Z,26.37
2023-06-29T02:47:14.650Z,26.34
2023-06-29T02:48:14.611Z,26.35
2023-06-29T02:49:14.597Z,26.33
2023-06-29T02:50:14.668Z,26.34
2023-06-29T02:51:14.618Z,26.33
2023-06-29T02:52:14.715Z,26.35
2023-06-29T02:53:14.660Z,26.34
2023-06-29T02:54:14.570Z,26.34
2023-06-29T02:55:14.607Z,26.37
2023-06-29T02:56:14.587Z,26.48
2023-06-29T02:57:14.642Z,26.54
2023-06-29T02:58:14.715Z,26.59
2023-06-29T02:59:14.563Z,26.70
2023-06-29T03:00:14.606Z,26.75
2023-06-29T03:01:14.609Z,26.81
2023-06-29T03:02:14.649Z,26.85
2023-06-29T03:03:14.678Z,26.90
2023-06-29T03:04:14.599Z,26.92
2023-06-29T03:05:15.262Z,26.99
2023-06-29T03:06:14.536Z,27.05
2023-06-29T03:07:15.290Z,27.10
2023-06-29T03:08:14.564Z,27.11
2023-06-29T03:09:14.497Z,27.07
2023-06-29T03:10:14.540Z,27.05
2023-06-29T03:11:14.494Z,27.03
2023-06-29T03:12:14.469Z,27.07
2023-06-29T03:13:14.762Z,27.07
2023-06-29T03:14:14.435Z,27.11
2023-06-29T03:15:15.235Z,27.16
2023-06-29T03:16:14.548Z,27.16
2023-06-29T03:17:14.497Z,27.22
2023-06-29T03:18:14.774Z,27.19
2023-06-29T03:19:15.228Z,27.23
2023-06-29T03:20:14.509Z,27.23
2023-06-29T03:21:18.272Z,27.27
2023-06-29T03:22:15.237Z,27.29
2023-06-29T03:23:15.438Z,27.29
2023-06-29T03:24:15.254Z,27.32
2023-06-29T03:25:14.499Z,27.33
2023-06-29T03:26:14.496Z,27.33
2023-06-29T03:27:14.420Z,27.36
2023-06-29T03:28:14.828Z,27.34
2023-06-29T03:29:14.514Z,27.36
2023-06-29T03:30:14.528Z,27.37
2023-06-29T03:31:14.572Z,27.36
2023-06-29T03:32:14.627Z,27.37
2023-06-29T03:33:15.319Z,27.40
2023-06-29T03:34:14.773Z,27.40
2023-06-29T03:35:14.721Z,27.43
2023-06-29T03:36:14.744Z,27.41
2023-06-29T03:37:14.716Z,27.43
2023-06-29T03:38:14.735Z,27.41
2023-06-29T03:39:14.750Z,27.46
2023-06-29T03:40:14.731Z,27.44
2023-06-29T03:41:14.685Z,27.47
2023-06-29T03:42:14.707Z,27.46
2023-06-29T03:43:14.782Z,27.46
2023-06-29T03:44:14.685Z,27.47
2023-06-29T03:45:14.656Z,27.46
2023-06-29T03:46:14.728Z,27.46
2023-06-29T03:47:14.677Z,27.46
2023-06-29T03:48:14.745Z,27.47
2023-06-29T03:49:14.685Z,27.51
2023-06-29T03:50:14.632Z,27.50
2023-06-29T03:51:14.653Z,27.47
2023-06-29T03:52:14.634Z,27.46
2023-06-29T03:53:14.745Z,27.47
2023-06-29T03:54:14.628Z,27.47
2023-06-29T03:55:14.621Z,27.41
2023-06-29T03:56:14.650Z,27.40
2023-06-29T03:57:14.620Z,27.38
2023-06-29T03:58:14.623Z,27.34
2023-06-29T03:59:14.598Z,27.27
2023-06-29T04:00:14.591Z,27.29
2023-06-29T04:01:14.613Z,27.25
2023-06-29T04:02:14.646Z,27.25
2023-06-29T04:03:15.319Z,27.19
2023-06-29T04:04:14.625Z,27.17
2023-06-29T04:05:14.609Z,27.17
2023-06-29T04:06:14.569Z,27.13
2023-06-29T04:07:14.664Z,27.11
2023-06-29T04:08:14.585Z,27.11
2023-06-29T04:09:14.586Z,27.07
2023-06-29T04:10:14.597Z,27.09
2023-06-29T04:11:14.587Z,27.05
2023-06-29T04:12:14.593Z,27.03
2023-06-29T04:13:19.425Z,27.00
2023-06-29T04:14:14.576Z,27.00
2023-06-29T04:15:14.593Z,26.99
2023-06-29T04:16:14.634Z,26.99
2023-06-29T04:17:14.577Z,26.95
2023-06-29T04:18:14.596Z,26.95
2023-06-29T04:19:16.944Z,26.95
2023-06-29T04:20:14.577Z,26.93
2023-06-29T04:21:14.593Z,26.92
2023-06-29T04:22:14.593Z,26.90
2023-06-29T04:23:14.599Z,26.92
2023-06-29T04:24:14.597Z,26.89
2023-06-29T04:25:14.599Z,26.89
2023-06-29T04:26:14.605Z,26.88
2023-06-29T04:27:14.610Z,26.88
2023-06-29T04:28:14.641Z,26.86
2023-06-29T04:29:14.658Z,26.86
2023-06-29T04:30:14.624Z,26.85
2023-06-29T04:31:14.654Z,26.83
2023-06-29T04:32:14.681Z,26.82
2023-06-29T04:33:14.783Z,26.82
2023-06-29T04:34:14.643Z,26.82
2023-06-29T04:35:14.699Z,26.81
2023-06-29T04:36:14.682Z,26.81
2023-06-29T04:37:14.624Z,26.82
2023-06-29T04:38:14.689Z,26.83
2023-06-29T04:39:14.642Z,26.88
2023-06-29T04:40:14.636Z,26.90
2023-06-29T04:41:14.627Z,26.92
2023-06-29T04:42:14.654Z,26.93
2023-06-29T04:43:14.746Z,26.98
2023-06-29T04:44:14.630Z,26.98
2023-06-29T04:45:14.634Z,26.99
2023-06-29T04:46:14.660Z,27.02
2023-06-29T04:47:14.671Z,27.03
2023-06-29T04:48:14.626Z,27.03
2023-06-29T04:49:14.636Z,27.07
2023-06-29T04:50:14.756Z,27.07
2023-06-29T04:51:14.691Z,27.06
2023-06-29T04:52:14.647Z,27.07
2023-06-29T04:53:14.612Z,27.13
2023-06-29T04:54:14.613Z,27.11
2023-06-29T04:55:14.601Z,27.14
2023-06-29T04:56:14.616Z,27.13
2023-06-29T04:57:14.692Z,27.17
2023-06-29T04:58:14.623Z,27.17
2023-06-29T04:59:14.583Z,27.16
2023-06-29T05:00:14.586Z,27.19
2023-06-29T05:01:14.613Z,27.20
2023-06-29T05:02:14.621Z,27.19
2023-06-29T05:03:14.943Z,27.20
2023-06-29T05:04:14.557Z,27.22
2023-06-29T05:05:14.565Z,27.20
2023-06-29T05:06:14.557Z,27.22
2023-06-29T05:07:14.586Z,27.23
2023-06-29T05:08:14.594Z,27.25
2023-06-29T05:09:14.564Z,27.26
2023-06-29T05:10:14.537Z,27.26
2023-06-29T05:11:14.541Z,27.25
2023-06-29T05:12:14.542Z,27.26
2023-06-29T05:13:14.610Z,27.27
2023-06-29T05:14:14.516Z,27.29
2023-06-29T05:15:14.508Z,27.29
2023-06-29T05:16:14.518Z,27.30
2023-06-29T05:17:14.612Z,27.32
2023-06-29T05:18:14.502Z,27.32
2023-06-29T05:19:14.486Z,27.30
2023-06-29T05:20:14.497Z,27.30
2023-06-29T05:21:14.494Z,27.32
2023-06-29T05:22:14.458Z,27.34
2023-06-29T05:23:14.503Z,27.32
2023-06-29T05:24:14.455Z,27.32
2023-06-29T05:25:14.463Z,27.34
2023-06-29T05:26:14.454Z,27.33
2023-06-29T05:27:14.422Z,27.33
2023-06-29T05:28:14.424Z,27.34
2023-06-29T05:29:14.452Z,27.33
2023-06-29T05:30:14.487Z,27.33
2023-06-29T05:31:16.374Z,27.33
2023-06-29T05:32:14.407Z,27.34
2023-06-29T05:33:14.414Z,27.34
2023-06-29T05:34:14.411Z,27.36
2023-06-29T05:35:14.418Z,27.34
2023-06-29T05:36:14.370Z,27.36
2023-06-29T05:37:14.489Z,27.36
2023-06-29T05:38:14.783Z,27.37
2023-06-29T05:39:14.452Z,27.34
2023-06-29T05:40:14.465Z,27.34
2023-06-29T05:41:14.423Z,27.37
2023-06-29T05:42:14.410Z,27.34
2023-06-29T05:43:15.984Z,27.33
2023-06-29T05:44:14.387Z,27.34
2023-06-29T05:45:14.490Z,27.34
2023-06-29T05:46:14.645Z,27.33
2023-06-29T05:47:14.355Z,27.36
2023-06-29T05:48:14.417Z,27.33
2023-06-29T05:49:14.501Z,27.36
2023-06-29T05:50:14.399Z,27.34
2023-06-29T05:51:14.327Z,27.34
2023-06-29T05:52:14.337Z,27.36
2023-06-29T05:53:14.359Z,27.37
2023-06-29T05:54:14.332Z,27.37
2023-06-29T05:55:14.333Z,27.37
2023-06-29T05:56:14.334Z,27.34
2023-06-29T05:57:14.374Z,27.37
2023-06-29T05:58:14.381Z,27.36
2023-06-29T05:59:14.305Z,27.37
2023-06-29T06:00:14.298Z,27.44
2023-06-29T06:01:14.386Z,27.50
2023-06-29T06:02:14.274Z,27.55
2023-06-29T06:03:14.434Z,27.60
2023-06-29T06:04:14.309Z,27.62
2023-06-29T06:05:14.258Z,27.67
2023-06-29T06:06:14.293Z,27.72
2023-06-29T06:07:14.282Z,27.78
2023-06-29T06:08:15.712Z,27.80
2023-06-29T06:09:14.236Z,27.84
2023-06-29T06:10:14.186Z,27.89
2023-06-29T06:11:14.191Z,27.95
2023-06-29T06:12:14.157Z,27.99
2023-06-29T06:13:14.229Z,28.02
2023-06-29T06:14:14.183Z,28.06
2023-06-29T06:15:14.147Z,28.11
2023-06-29T06:16:14.192Z,28.13
2023-06-29T06:17:14.168Z,28.20
2023-06-29T06:18:14.252Z,28.22
2023-06-29T06:19:14.277Z,28.26
2023-06-29T06:20:14.320Z,28.29
2023-06-29T06:21:14.374Z,28.33
2023-06-29T06:22:14.392Z,28.36
2023-06-29T06:23:14.429Z,28.39
2023-06-29T06:24:14.460Z,28.42
2023-06-29T06:25:14.457Z,28.47
2023-06-29T06:26:14.455Z,28.49
2023-06-29T06:27:14.450Z,28.56
2023-06-29T06:28:14.858Z,28.56
2023-06-29T06:29:14.407Z,28.57
2023-06-29T06:30:14.375Z,28.60
2023-06-29T06:31:24.396Z,28.60
2023-06-29T06:32:15.356Z,28.66
2023-06-29T06:33:14.332Z,28.68
2023-06-29T06:34:14.426Z,28.70
2023-06-29T06:35:14.316Z,28.70
2023-06-29T06:36:14.241Z,28.73
2023-06-29T06:37:14.233Z,28.75
2023-06-29T06:38:14.216Z,28.78
2023-06-29T06:39:14.185Z,28.79
2023-06-29T06:40:14.179Z,28.84
2023-06-29T06:41:14.823Z,28.82
2023-06-29T06:42:14.138Z,28.87
2023-06-29T06:43:14.173Z,28.88
2023-06-29T06:44:14.086Z,28.90
2023-06-29T06:45:14.124Z,28.90
2023-06-29T06:46:14.068Z,28.91
2023-06-29T06:47:14.013Z,28.93
2023-06-29T06:48:14.234Z,28.93
2023-06-29T06:49:13.977Z,28.94
2023-06-29T06:50:13.988Z,28.91
2023-06-29T06:51:13.920Z,28.93
2023-06-29T06:52:13.965Z,28.93
2023-06-29T06:53:13.947Z,28.91
2023-06-29T06:54:13.882Z,28.91
2023-06-29T06:55:13.869Z,28.93
2023-06-29T06:56:13.864Z,28.94
2023-06-29T06:57:13.823Z,28.93
2023-06-29T06:58:13.773Z,28.97
2023-06-29T06:59:13.761Z,28.93
2023-06-29T07:00:13.796Z,28.95
2023-06-29T07:01:13.765Z,28.95
2023-06-29T07:02:13.804Z,28.95
2023-06-29T07:03:13.781Z,28.91
2023-06-29T07:04:13.660Z,28.93
2023-06-29T07:05:13.635Z,28.94
2023-06-29T07:06:13.652Z,28.93
2023-06-29T07:07:13.644Z,28.94
2023-06-29T07:08:13.597Z,28.90
2023-06-29T07:09:14.431Z,28.90
2023-06-29T07:10:13.504Z,28.91
2023-06-29T07:11:13.467Z,28.88
2023-06-29T07:12:13.447Z,28.88
2023-06-29T07:13:13.480Z,28.87
2023-06-29T07:14:13.372Z,28.88
2023-06-29T07:15:13.437Z,28.88
2023-06-29T07:16:13.341Z,28.85
2023-06-29T07:17:13.342Z,28.88
2023-06-29T07:18:13.396Z,28.88
2023-06-29T07:24:13.152Z,28.93
2023-06-29T07:25:13.115Z,28.94
2023-06-29T07:26:13.178Z,28.95
2023-06-29T07:27:13.043Z,28.94
2023-06-29T07:28:13.042Z,28.97
2023-06-29T07:29:13.014Z,28.94
2023-06-29T07:30:12.958Z,28.99
2023-06-29T07:31:13.082Z,28.97
2023-06-29T07:32:12.922Z,29.01
2023-06-29T07:33:12.977Z,29.02
2023-06-29T07:34:12.864Z,29.04
2023-06-29T07:35:12.831Z,29.02
2023-06-29T07:36:12.838Z,29.02
2023-06-29T07:37:12.806Z,29.04
2023-06-29T07:38:12.781Z,29.05
2023-06-29T07:39:12.740Z,29.06
2023-06-29T07:40:12.732Z,29.05
2023-06-29T07:41:12.770Z,29.08
2023-06-29T07:42:13.357Z,29.05
2023-06-29T07:43:12.733Z,29.09
2023-06-29T07:44:12.733Z,29.08
2023-06-29T07:45:12.740Z,29.08
2023-06-29T07:46:13.352Z,29.06
2023-06-29T07:47:12.803Z,29.08
2023-06-29T07:48:12.920Z,29.06
2023-06-29T07:49:12.833Z,29.09
2023-06-29T07:50:12.834Z,29.09
2023-06-29T07:51:12.878Z,29.14
2023-06-29T07:52:12.778Z,29.15
2023-06-29T07:53:12.795Z,29.16
2023-06-29T07:54:12.804Z,29.18
2023-06-29T07:55:12.723Z,29.18
2023-06-29T07:56:12.696Z,29.21
2023-06-29T07:59:12.603Z,29.26
2023-06-29T08:00:12.570Z,29.23
2023-06-29T08:01:12.566Z,29.25
2023-06-29T08:02:12.694Z,29.23
2023-06-29T08:03:12.507Z,29.23
2023-06-29T08:04:12.537Z,29.23
2023-06-29T08:07:12.485Z,29.28
2023-06-29T08:08:12.575Z,29.30
2023-06-29T08:09:12.378Z,29.30
2023-06-29T08:10:12.310Z,29.30
2023-06-29T08:11:12.242Z,29.32
2023-06-29T08:12:12.218Z,29.32
2023-06-29T08:13:12.272Z,29.36
2023-06-29T08:14:12.172Z,29.36
2023-06-29T08:15:12.146Z,29.37
2023-06-29T08:16:12.245Z,29.37
2023-06-29T08:17:12.211Z,29.43
2023-06-29T08:18:12.288Z,29.40
2023-06-29T08:19:12.324Z,29.43
2023-06-29T08:20:12.325Z,29.45
2023-06-29T08:21:12.357Z,29.45
2023-06-29T08:22:12.460Z,29.40
2023-06-29T08:23:12.447Z,29.43
2023-06-29T08:24:12.468Z,29.43
2023-06-29T08:25:12.480Z,29.43
2023-06-29T08:26:12.557Z,29.45
2023-06-29T08:27:12.537Z,29.43
2023-06-29T08:28:12.571Z,29.45
2023-06-29T08:29:12.590Z,29.42
2023-06-29T08:30:12.623Z,29.43
2023-06-29T08:31:12.727Z,29.45
2023-06-29T08:32:12.889Z,29.43
2023-06-29T08:33:13.184Z,29.43
2023-06-29T08:34:12.823Z,29.43
2023-06-29T08:35:12.756Z,29.43
2023-06-29T08:36:12.754Z,29.43
2023-06-29T08:37:12.820Z,29.45
2023-06-29T08:38:12.795Z,29.40
2023-06-29T08:39:12.833Z,29.42
2023-06-29T08:40:12.884Z,29.43
2023-06-29T08:41:12.872Z,29.46
2023-06-29T08:42:12.873Z,29.49
2023-06-29T08:43:12.909Z,29.50
2023-06-29T08:44:12.924Z,29.48
2023-06-29T08:45:12.953Z,29.45
2023-06-29T08:46:12.975Z,29.48
2023-06-29T08:47:12.949Z,29.48
2023-06-29T08:48:12.914Z,29.46
2023-06-29T08:49:12.841Z,29.46
2023-06-29T08:50:12.832Z,29.46
2023-06-29T08:51:13.021Z,29.46
2023-06-29T08:52:12.756Z,29.48
2023-06-29T08:53:12.760Z,29.49
2023-06-29T08:54:12.653Z,29.48
2023-06-29T08:55:12.639Z,29.49
2023-06-29T08:56:12.581Z,29.50
2023-06-29T08:57:12.556Z,29.53
2023-06-29T08:58:12.534Z,29.53
2023-06-29T08:59:12.489Z,29.56
2023-06-29T09:00:13.442Z,29.59
2023-06-29T09:01:12.410Z,29.60
2023-06-29T09:02:12.412Z,29.61
2023-06-29T09:03:12.535Z,29.66
2023-06-29T09:04:12.383Z,29.67
2023-06-29T09:05:12.288Z,29.67
2023-06-29T09:06:13.899Z,29.71
2023-06-29T09:07:12.185Z,29.73
2023-06-29T09:08:12.172Z,29.73
2023-06-29T09:09:12.101Z,29.76
2023-06-29T09:10:12.052Z,29.76
2023-06-29T09:11:12.046Z,29.81
2023-06-29T09:12:12.009Z,29.85
2023-06-29T09:13:11.975Z,29.84
2023-06-29T09:14:11.966Z,29.85
2023-06-29T09:15:11.903Z,29.87
2023-06-29T09:16:11.947Z,29.84
2023-06-29T09:17:11.838Z,29.85
2023-06-29T09:18:11.958Z,29.85
2023-06-29T09:19:11.748Z,29.88
2023-06-29T09:20:11.706Z,29.90
2023-06-29T09:21:11.673Z,29.88
2023-06-29T09:22:11.639Z,29.88
2023-06-29T09:23:11.606Z,29.90
2023-06-29T09:24:11.588Z,29.94
2023-06-29T09:25:23.332Z,29.98
2023-06-29T09:26:13.451Z,29.98
2023-06-29T09:27:11.445Z,29.97
2023-06-29T09:28:11.424Z,29.97
2023-06-29T09:29:11.395Z,30.01
2023-06-29T09:30:11.341Z,30.01
2023-06-29T09:31:11.323Z,30.04
2023-06-29T09:32:11.266Z,30.07
2023-06-29T09:33:11.544Z,30.08
2023-06-29T09:34:11.185Z,30.07
2023-06-29T09:35:11.224Z,30.07
2023-06-29T09:36:11.101Z,30.08
2023-06-29T09:37:11.060Z,30.08
2023-06-29T09:38:10.993Z,30.09
2023-06-29T09:39:10.956Z,30.11
2023-06-29T09:40:10.923Z,30.15
2023-06-29T09:41:12.910Z,30.14
2023-06-29T09:42:10.954Z,30.14
2023-06-29T09:43:10.795Z,30.15
2023-06-29T09:44:10.786Z,30.18
2023-06-29T09:45:11.316Z,30.17
2023-06-29T09:46:10.789Z,30.19
2023-06-29T09:49:11.119Z,30.19
2023-06-29T09:50:10.614Z,30.19
2023-06-29T09:51:10.666Z,30.21
2023-06-29T09:52:10.507Z,30.22
2023-06-29T09:53:10.442Z,30.22
2023-06-29T09:54:10.339Z,30.24
2023-06-29T09:55:10.299Z,30.22
2023-06-29T09:56:10.288Z,30.25
2023-06-29T09:57:10.309Z,30.26
2023-06-29T09:58:11.914Z,30.25
2023-06-29T09:59:10.141Z,30.28
2023-06-29T10:00:10.109Z,30.28
2023-06-29T10:01:10.111Z,30.29
2023-06-29T10:02:10.142Z,30.28
2023-06-29T10:03:10.052Z,30.31
2023-06-29T10:04:10.022Z,30.32
2023-06-29T10:05:09.916Z,30.34
2023-06-29T10:06:09.895Z,30.32
2023-06-29T10:07:09.985Z,30.34
2023-06-29T10:08:09.779Z,30.31
2023-06-29T10:09:09.736Z,30.34
2023-06-29T10:10:09.721Z,30.34
2023-06-29T10:11:09.671Z,30.34
2023-06-29T10:12:09.620Z,30.35
2023-06-29T10:13:09.601Z,30.38
2023-06-29T10:14:09.542Z,30.36
2023-06-29T10:15:09.513Z,30.36
2023-06-29T10:16:09.455Z,30.36
2023-06-29T10:17:10.412Z,30.36
2023-06-29T10:18:09.437Z,30.35
2023-06-29T10:19:09.387Z,30.35
2023-06-29T10:20:09.456Z,30.35
2023-06-29T10:21:09.384Z,30.34
2023-06-29T10:22:09.330Z,30.36
2023-06-29T10:23:09.344Z,30.34
2023-06-29T10:24:09.294Z,30.36
2023-06-29T10:25:09.285Z,30.35
2023-06-29T10:26:09.263Z,30.35
2023-06-29T10:27:09.258Z,30.35
2023-06-29T10:28:09.253Z,30.35
2023-06-29T10:29:09.200Z,30.35
2023-06-29T10:30:09.133Z,30.36
2023-06-29T10:31:09.190Z,30.39
2023-06-29T10:32:09.087Z,30.39
2023-06-29T10:33:09.468Z,30.38
2023-06-29T10:34:09.025Z,30.38
2023-06-29T10:35:09.017Z,30.36
2023-06-29T10:36:08.926Z,30.35
2023-06-29T10:37:08.869Z,30.36
2023-06-29T10:38:08.837Z,30.36
2023-06-29T10:39:08.802Z,30.38
2023-06-29T10:40:08.767Z,30.36
2023-06-29T10:41:08.728Z,30.36
2023-06-29T10:42:08.726Z,30.36
2023-06-29T10:43:08.674Z,30.38
2023-06-29T10:44:08.600Z,30.36
2023-06-29T10:45:08.577Z,30.39
2023-06-29T10:46:08.615Z,30.39
2023-06-29T10:47:08.493Z,30.38
2023-06-29T10:48:08.562Z,30.36
2023-06-29T10:49:08.433Z,30.36
2023-06-29T10:50:08.400Z,30.39
2023-06-29T10:51:08.339Z,30.38
2023-06-29T10:52:08.306Z,30.39
2023-06-29T10:53:08.302Z,30.38
2023-06-29T10:54:08.286Z,30.38
2023-06-29T10:55:08.216Z,30.39
2023-06-29T10:56:08.184Z,30.39
2023-06-29T10:57:08.118Z,30.39
2023-06-29T10:58:08.087Z,30.40
2023-06-29T10:59:08.047Z,30.38
2023-06-29T11:00:08.028Z,30.40
2023-06-29T11:01:07.991Z,30.38
2023-06-29T11:02:08.071Z,30.36
2023-06-29T11:03:07.985Z,30.39
2023-06-29T11:04:07.911Z,30.39
2023-06-29T11:05:07.827Z,30.38
2023-06-29T11:06:07.807Z,30.39
2023-06-29T11:07:07.762Z,30.40
2023-06-29T11:08:07.724Z,30.36
2023-06-29T11:09:07.678Z,30.38
2023-06-29T11:10:07.630Z,30.39
2023-06-29T11:11:07.595Z,30.36
2023-06-29T11:12:07.592Z,30.35
2023-06-29T11:13:07.544Z,30.38
2023-06-29T11:14:07.943Z,30.38
2023-06-29T11:16:08.403Z,30.36
2023-06-29T11:17:07.351Z,30.38
2023-06-29T11:18:07.386Z,30.36
2023-06-29T11:19:08.870Z,30.36
2023-06-29T11:20:07.234Z,30.38
2023-06-29T11:21:07.172Z,30.35
2023-06-29T11:22:07.133Z,30.38
2023-06-29T11:23:07.096Z,30.34
2023-06-29T11:24:07.073Z,30.34
2023-06-29T11:25:07.061Z,30.34
2023-06-29T11:26:06.999Z,30.34
2023-06-29T11:27:06.980Z,30.34
2023-06-29T11:28:06.942Z,30.35
2023-06-29T11:29:06.868Z,30.35
2023-06-29T11:30:06.839Z,30.35
2023-06-29T11:31:06.892Z,30.36
2023-06-29T11:32:06.927Z,30.35
2023-06-29T11:34:07.769Z,30.35
2023-06-29T11:35:06.640Z,30.35
2023-06-29T11:36:06.659Z,30.32
2023-06-29T11:38:06.686Z,30.35
2023-06-29T11:39:06.534Z,30.34
2023-06-29T11:40:06.450Z,30.34
2023-06-29T11:41:06.516Z,30.36
2023-06-29T11:42:06.387Z,30.32
2023-06-29T11:43:06.377Z,30.35
2023-06-29T11:44:06.307Z,30.34
2023-06-29T11:45:06.268Z,30.32
2023-06-29T11:46:06.237Z,30.32
2023-06-29T11:47:25.534Z,30.32
2023-06-29T11:48:07.165Z,30.34
2023-06-29T11:49:06.490Z,30.34
2023-06-29T11:50:06.057Z,30.34
2023-06-29T11:51:06.054Z,30.32
2023-06-29T11:52:05.990Z,30.34
2023-06-29T11:53:05.957Z,30.31
2023-06-29T11:54:05.930Z,30.32
2023-06-29T11:55:05.896Z,30.34
2023-06-29T11:56:05.864Z,30.32
2023-06-29T11:57:05.809Z,30.35
2023-06-29T11:58:05.762Z,30.34
2023-06-29T11:59:05.736Z,30.34
2023-06-29T12:00:05.699Z,30.35
2023-06-29T12:01:05.716Z,30.34
2023-06-29T12:02:05.641Z,30.35
2023-06-29T12:03:05.666Z,30.36
2023-06-29T12:04:05.632Z,30.34
2023-06-29T12:05:05.603Z,30.36
2023-06-29T12:06:05.462Z,30.36
2023-06-29T12:07:05.527Z,30.38
2023-06-29T12:08:05.637Z,30.36
2023-06-29T12:09:05.451Z,30.35
2023-06-29T12:10:05.428Z,30.38
2023-06-29T12:11:05.387Z,30.36
2023-06-29T12:12:05.494Z,30.38
2023-06-29T12:13:05.374Z,30.38
2023-06-29T12:14:05.377Z,30.38
2023-06-29T12:15:05.360Z,30.36
2023-06-29T12:18:05.677Z,30.35
2023-06-29T12:20:10.288Z,30.34
2023-06-29T12:21:06.343Z,30.31
2023-06-29T12:22:05.322Z,30.34
2023-06-29T12:23:05.079Z,30.35
2023-06-29T12:24:05.079Z,30.34
2023-06-29T12:25:05.054Z,30.34
2023-06-29T12:26:05.068Z,30.36
2023-06-29T12:27:04.954Z,30.36
2023-06-29T12:28:04.906Z,30.35
2023-06-29T12:29:04.892Z,30.34
2023-06-29T12:30:04.880Z,30.35
2023-06-29T12:31:04.909Z,30.38
2023-06-29T12:32:04.787Z,30.38
2023-06-29T12:33:04.815Z,30.35
2023-06-29T12:34:04.739Z,30.35
2023-06-29T12:35:04.681Z,30.35
2023-06-29T12:36:04.699Z,30.36
2023-06-29T12:37:04.646Z,30.36
2023-06-29T12:38:04.581Z,30.38
2023-06-29T12:39:04.992Z,30.39
2023-06-29T12:40:04.522Z,30.38
2023-06-29T12:41:04.482Z,30.39
2023-06-29T12:42:04.450Z,30.38
2023-06-29T12:43:04.452Z,30.38
2023-06-29T12:44:04.422Z,30.40
2023-06-29T12:45:04.349Z,30.40
2023-06-29T12:46:04.365Z,30.42
2023-06-29T12:47:04.345Z,30.40
2023-06-29T12:48:04.376Z,30.42
2023-06-29T12:49:04.532Z,30.43
2023-06-29T12:50:04.273Z,30.43
2023-06-29T12:51:04.269Z,30.45
2023-06-29T12:52:04.261Z,30.43
2023-06-29T12:53:04.231Z,30.43
2023-06-29T12:54:04.260Z,30.43
2023-06-29T12:55:04.224Z,30.42
2023-06-29T12:56:04.301Z,30.43
2023-06-29T12:57:04.190Z,30.42
2023-06-29T12:58:04.209Z,30.43
2023-06-29T12:59:04.174Z,30.43
2023-06-29T13:00:04.208Z,30.45
2023-06-29T13:01:04.192Z,30.45
2023-06-29T13:02:04.151Z,30.45
2023-06-29T13:03:04.210Z,30.40
2023-06-29T13:04:04.149Z,30.43
2023-06-29T13:05:04.078Z,30.39
2023-06-29T13:06:04.045Z,30.40
2023-06-29T13:07:04.147Z,30.39
2023-06-29T13:08:04.053Z,30.39
2023-06-29T13:09:04.015Z,30.39